AirNav   Everest Fuels
 
 503 users online  

VG33 Bull Farm Airport
Cape Charles, Virginia, USA

GOING TO CAPE CHARLES?


FAA INFORMATION EFFECTIVE 31 DECEMBER 2020

Location

FAA Identifier: VG33
Lat/Long: 37-09-16.5100N 075-57-24.7480W
37-09.275167N 075-57.412467W
37.1545861,-75.9568744
(estimated)
Elevation: 18 ft. / 5 m (estimated)
Variation: 10W (1985)
From city: 7 miles SE of CAPE CHARLES, VA
Time zone: UTC -5 (UTC -4 during Daylight Saving Time)
Zip code: 23310

Airport Operations

Airport use: Private use. Permission required prior to landing
Activation date: 07/1971
Control tower: no
ARTCC: WASHINGTON CENTER
FSS: LEESBURG FLIGHT SERVICE STATION
Attendance: SR-SS
Wind indicator: yes
Segmented circle: no

Airport Communications

WX ASOS at ORF (20 nm SW): PHONE 757-460-9348

Nearby radio navigation aids

VOR radial/distance  VOR name  Freq  Var
CCVr180/11.7CAPE CHARLES VORTAC112.2010W
ORFr043/19.6NORFOLK VORTAC116.9007W

Airport Services

Runway Information

Runway 2/20

Dimensions: 3000 x 50 ft. / 914 x 15 m
Surface: turf
RUNWAY 2  RUNWAY 20
Traffic pattern: leftleft
Obstructions: trees, 700 ft. from runwaytrees, 700 ft. from runway

Airport Ownership and Management from official FAA records

Ownership: Privately-owned
Owner: J D BULL
P.O. BOX 124
TOWNSEND, VA 23443
Phone 757-331-2218
Manager: J D BULL
P.O. BOX 124
TOWNSEND, VA 23443
Phone 804-331-3894

Additional Remarks

FOR CD CTC NORFOLK APCH AT 757-464-0757.

Instrument Procedures

There are no published instrument procedures at VG33.

Some nearby airports with instrument procedures:

KORF - Norfolk International Airport (20 nm SW)
KLFI - Langley Air Force Base (20 nm W)
KNTU - Oceana Naval Air Station (Apollo Soucek Field) (20 nm S)
KNGU - Norfolk Naval Station (Chambers Field) (21 nm SW)
KPHF - Newport News/Williamsburg International Airport (26 nm W)
 
Loc | Ops | Rwys | IFR | FBO | Links
Com | Nav | Svcs | Stats | Notes
Area around VG33 (Bull Farm Airport)
 
Road maps at: MapQuest Bing Google
 
Aerial photo
No photo
 
Sectional chart

 
Airport distance calculator
Flying to Bull Farm Airport? Find the distance to fly.

From to VG33

Sunrise and sunset
Times for 17-Jan-2021
 Local
(UTC-5)
 Zulu
(UTC)
Morning civil twilight06:4911:49
Sunrise07:1712:17
Sunset17:1122:11
Evening civil twilight17:3922:39

Current date and time
Zulu (UTC)  17-Jan-2021 10:29:53
Local (UTC-5)  17-Jan-2021 05:29:53
 
METAR
KORF 
19nm SW 
170951Z 24007KT 10SM CLR 02/M03 A2982 RMK AO2 SLP097 T00221033
KLFI 
20nm W 
170956Z AUTO 24011KT 10SM CLR 01/M02 A2982 RMK AO2 SLP105 T00141017 $
KNTU 
20nm S 
170956Z 25005KT 10SM CLR 01/M04 A2983 RMK AO2 SLP102 T00111039
KNGU 
21nm SW 
170959Z 25011KT 10SM CLR 03/M03 A2984 RMK AO2 SLP103 T00281033 $
KPHF 
26nm W 
170954Z AUTO 24008KT 10SM CLR 01/M03 A2982 RMK AO2 SLP098 T00061033
KNFE 
29nm S 
170956Z AUTO 00000KT 10SM CLR 00/M04 A2985 RMK AO2 SLP109 T00001039 $
KMFV 
30nm N 
170955Z AUTO 25008G15KT 10SM CLR 02/M03 A2979 RMK AO2 T00151028
KFAF 
32nm W 
170956Z AUTO 24004KT 10SM CLR 01/M03 A2980 RMK AO2 SLP094 T00101033 $
KCPK 
34nm SW 
171015Z AUTO 23004KT 10SM CLR 00/M03 A2986 RMK AO2 T00001035
KW75 
36nm NW 
171015Z AUTO 21004KT 10SM CLR 00/M03 A2980 RMK AO1 T00001030
TAF
KORF 
19nm SW 
170550Z 1706/1806 24010KT P6SM SKC FM171600 23011KT P6SM SCT150 FM180000 22007KT P6SM BKN200
KLFI 
20nm W 
162301Z 1623/1716 26012G18KT 9999 FEW010 BKN050 QNH2961INS BECMG 1701/1702 25012KT 9999 FEW020 QNH2964INS TX08/1719Z TN04/1712Z LAST NO AMDS AFT 1623 NEXT 1910
KNTU 
20nm S 
1707/1807 26013G18KT 9999 SKC 520008 532409 533307 QNH2976INS BECMG 1718/1720 24015G20KT 9999 FEW035 500000 532409 533306 QNH2978INS BECMG 1723/1801 22008KT 9999 FEW010 SCT015 BKN025 532409 533306 QNH2979INS T01/1712Z T11/1721Z FN00199
KNGU 
21nm SW 
1707/1807 26013G18KT 9999 SKC 520008 532409 533307 QNH2976INS BECMG 1718/1720 24010G15KT 9999 FEW040 500000 532409 533306 QNH2978INS BECMG 1722/1800 23008KT 9999 FEW010 SCT015 BKN025 532409 533306 QNH2979INS T02/1712Z T12/1721Z FN00199
NOTAMs
Click for the latest NOTAMs
NOTAMs are issued by the DoD/FAA and will open in a separate window not controlled by AirNav.

 

 
 

Would you like to see your business listed on this page?

 If your business provides an interesting product or service to pilots, flight crews, aircraft, or users of the Bull Farm Airport, you should consider listing it here.  To start the listing process, click on the button below
 
Add a business
 

Other Pages about Bull Farm Airport

Update a link
 
Copyright © AirNav, LLC. All rights reserved. Privacy Policy  Contact